Time;durP1;ratioP1;P1;durP2;ratioP2;P2;SDS_P1;SDS_P2;PMS_P1;PMS_P2;Temp;Humidity;BMP_temperature;BMP_pressure;BME280_temperature;BME280_humidity;BME280_pressure;Samples;Min_cycle;Max_cycle;Signal;HPM_P1;HPM_P2
2021/04/09 00:00:27;;;;;;;1.48;0.40;;;21.50;42.00;;;;;;5025423;28;20055;-79
2021/04/09 00:02:56;;;;;;;1.08;0.40;;;21.50;42.00;;;;;;5046523;28;20028;-80
2021/04/09 00:05:23;;;;;;;1.45;0.30;;;21.50;42.00;;;;;;5026264;28;20021;-80
2021/04/09 00:07:49;;;;;;;2.42;0.70;;;21.50;42.00;;;;;;5024661;28;20095;-79
2021/04/09 00:10:17;;;;;;;0.80;0.32;;;21.50;42.00;;;;;;5027231;28;20392;-80
2021/04/09 00:12:43;;;;;;;1.63;0.30;;;21.40;41.90;;;;;;5016827;28;20500;-79
2021/04/09 00:15:11;;;;;;;1.20;0.25;;;21.40;41.90;;;;;;5056563;28;20033;-79
2021/04/09 00:17:37;;;;;;;1.63;0.40;;;21.40;41.90;;;;;;5029550;28;20068;-79
2021/04/09 00:20:05;;;;;;;2.33;0.50;;;21.40;42.00;;;;;;5034415;28;20033;-79
2021/04/09 00:22:31;;;;;;;0.47;0.15;;;21.40;41.90;;;;;;5034408;28;20124;-80
2021/04/09 00:24:57;;;;;;;0.70;0.40;;;21.40;42.00;;;;;;5002879;28;20021;-79
2021/04/09 00:27:23;;;;;;;2.40;0.30;;;21.40;41.90;;;;;;5012176;28;20087;-80
2021/04/09 00:29:49;;;;;;;0.80;0.30;;;21.30;41.80;;;;;;5019268;28;20504;-80
2021/04/09 00:32:15;;;;;;;0.63;0.22;;;21.40;42.00;;;;;;5045956;28;20053;-79
2021/04/09 00:34:41;;;;;;;1.17;0.30;;;21.30;41.80;;;;;;5025704;28;20048;-80
2021/04/09 00:37:08;;;;;;;0.68;0.28;;;21.30;41.80;;;;;;5030854;28;20028;-80
2021/04/09 00:39:33;;;;;;;0.98;0.40;;;21.30;41.80;;;;;;5046109;28;20067;-80
2021/04/09 00:41:59;;;;;;;1.15;0.25;;;21.30;41.80;;;;;;5010556;28;20445;-80
2021/04/09 00:44:25;;;;;;;1.15;0.30;;;21.30;41.80;;;;;;5028554;28;20029;-80
2021/04/09 00:46:51;;;;;;;1.33;0.30;;;21.30;41.80;;;;;;5025954;28;20120;-80
2021/04/09 00:49:17;;;;;;;1.00;0.30;;;21.20;41.80;;;;;;5025698;28;20080;-80
2021/04/09 00:51:43;;;;;;;0.73;0.22;;;21.20;41.80;;;;;;5018310;28;20704;-79
2021/04/09 00:54:09;;;;;;;1.00;0.20;;;21.30;41.90;;;;;;5026346;28;20091;-80
2021/04/09 00:56:36;;;;;;;0.60;0.20;;;21.30;41.90;;;;;;5048052;28;20029;-80
2021/04/09 00:59:03;;;;;;;0.85;0.35;;;21.20;41.90;;;;;;5010081;28;20021;-80
2021/04/09 01:01:30;;;;;;;0.55;0.20;;;21.20;41.80;;;;;;5047365;28;20080;-81
2021/04/09 01:03:57;;;;;;;0.90;0.30;;;21.20;41.80;;;;;;5010647;28;20123;-80
2021/04/09 01:06:23;;;;;;;0.75;0.40;;;21.20;41.80;;;;;;5006727;28;20025;-79
2021/04/09 01:08:50;;;;;;;1.75;0.60;;;21.20;41.80;;;;;;5009631;28;20350;-80
2021/04/09 01:11:17;;;;;;;2.58;0.30;;;21.20;41.80;;;;;;5026450;28;20063;-80
2021/04/09 01:13:45;;;;;;;0.77;0.40;;;21.20;41.80;;;;;;5045094;28;20029;-80
2021/04/09 01:16:20;;;;;;;1.38;0.30;;;21.10;41.70;;;;;;5026658;28;20033;-80
2021/04/09 01:18:56;;;;;;;1.95;0.30;;;21.20;41.80;;;;;;5015370;28;20038;-80
2021/04/09 01:21:43;;;;;;;1.02;0.30;;;21.10;41.80;;;;;;5046278;28;20029;-80
2021/04/09 01:24:19;;;;;;;0.73;0.20;;;21.10;41.80;;;;;;5052380;28;20033;-80
2021/04/09 01:26:47;;;;;;;0.90;0.20;;;21.10;41.80;;;;;;5025626;28;20029;-81
2021/04/09 01:29:37;;;;;;;2.58;0.32;;;21.10;41.80;;;;;;5008689;28;20029;-80
2021/04/09 01:32:11;;;;;;;1.15;0.25;;;21.10;41.90;;;;;;5029717;28;20021;-80
2021/04/09 01:34:58;;;;;;;0.40;0.20;;;21.10;41.80;;;;;;5010144;28;20519;-80
2021/04/09 01:37:34;;;;;;;0.60;0.22;;;21.10;41.80;;;;;;5044141;28;20085;-80
2021/04/09 01:40:29;;;;;;;1.63;0.22;;;21.00;41.70;;;;;;5028643;28;20021;-80
2021/04/09 01:43:00;;;;;;;1.00;0.30;;;21.00;41.70;;;;;;5024096;28;20049;-80
2021/04/09 01:45:28;;;;;;;0.65;0.17;;;21.00;41.70;;;;;;5016178;28;20518;-80
2021/04/09 01:47:54;;;;;;;0.98;0.40;;;21.00;41.70;;;;;;5025391;28;20036;-80
2021/04/09 01:50:21;;;;;;;0.75;0.20;;;21.00;41.80;;;;;;5044529;28;20435;-80
2021/04/09 01:52:50;;;;;;;0.85;0.25;;;21.00;41.70;;;;;;5024905;28;20059;-80
2021/04/09 01:55:16;;;;;;;1.15;0.30;;;21.00;41.70;;;;;;5051266;28;20025;-80
2021/04/09 01:57:44;;;;;;;0.70;0.30;;;21.00;41.80;;;;;;5030766;28;20034;-80
2021/04/09 02:00:23;;;;;;;1.58;0.40;;;21.00;41.70;;;;;;5027852;28;20029;-80
2021/04/09 02:02:51;;;;;;;0.50;0.20;;;20.90;41.70;;;;;;5029366;28;20220;-81
2021/04/09 02:05:20;;;;;;;0.98;0.32;;;20.90;41.70;;;;;;5018040;28;20732;-79
2021/04/09 02:07:47;;;;;;;2.00;0.20;;;20.90;41.70;;;;;;5014407;28;20032;-80
2021/04/09 02:10:14;;;;;;;0.70;0.32;;;20.90;41.70;;;;;;5028817;28;20090;-80
2021/04/09 02:12:42;;;;;;;1.10;0.30;;;20.90;41.70;;;;;;5030489;28;20100;-80
2021/04/09 02:15:11;;;;;;;0.68;0.20;;;20.90;41.60;;;;;;5002621;28;20021;-80
2021/04/09 02:17:38;;;;;;;0.70;0.20;;;20.90;41.70;;;;;;5030028;28;20512;-80
2021/04/09 02:20:09;;;;;;;0.75;0.20;;;20.90;41.70;;;;;;5044572;28;20031;-80
2021/04/09 02:22:35;;;;;;;1.25;0.43;;;20.90;41.80;;;;;;5028065;28;20480;-79
2021/04/09 02:25:01;;;;;;;0.40;0.20;;;20.80;41.60;;;;;;5033289;28;20093;-80
2021/04/09 02:27:28;;;;;;;1.00;0.20;;;20.90;41.70;;;;;;5033549;28;20424;-80
2021/04/09 02:29:54;;;;;;;0.70;0.20;;;20.80;41.60;;;;;;5019882;28;20049;-79
2021/04/09 02:32:23;;;;;;;0.80;0.30;;;20.80;41.70;;;;;;5057819;28;20036;-79
2021/04/09 02:34:50;;;;;;;0.47;0.20;;;20.90;41.80;;;;;;5017917;28;20092;-80
2021/04/09 02:37:18;;;;;;;1.85;0.20;;;20.80;41.70;;;;;;5007879;28;20032;-80
2021/04/09 02:39:48;;;;;;;1.38;0.22;;;20.80;41.70;;;;;;5033272;28;20048;-80
2021/04/09 02:42:14;;;;;;;1.15;0.20;;;20.80;41.70;;;;;;5017345;28;20029;-80
2021/04/09 02:44:40;;;;;;;0.47;0.15;;;20.80;41.70;;;;;;5016054;28;20543;-80
2021/04/09 02:47:19;;;;;;;0.65;0.20;;;20.80;41.70;;;;;;5004958;28;20135;-81
2021/04/09 02:50:30;;;;;;;0.70;0.13;;;20.70;41.60;;;;;;5025479;28;20060;-80
2021/04/09 02:53:11;;;;;;;0.57;0.20;;;20.80;41.80;;;;;;5027221;28;20653;-79
2021/04/09 02:55:41;;;;;;;0.93;0.30;;;20.80;41.70;;;;;;5019621;28;20025;-80
2021/04/09 02:58:09;;;;;;;0.57;0.20;;;20.70;41.70;;;;;;5023930;28;20029;-80
2021/04/09 03:00:36;;;;;;;0.40;0.20;;;20.80;41.70;;;;;;5022872;28;20067;-79
2021/04/09 03:03:06;;;;;;;0.95;0.30;;;20.70;41.60;;;;;;5010514;28;20028;-79
2021/04/09 03:05:32;;;;;;;1.27;0.40;;;20.70;41.70;;;;;;5044314;28;20029;-79
2021/04/09 03:07:59;;;;;;;1.75;0.30;;;20.70;41.60;;;;;;5043596;28;20465;-79
2021/04/09 03:10:25;;;;;;;1.23;0.17;;;20.70;41.70;;;;;;5042991;28;20032;-79
2021/04/09 03:12:51;;;;;;;0.80;0.13;;;20.70;41.70;;;;;;5028570;28;20017;-80
2021/04/09 03:15:23;;;;;;;0.80;0.30;;;20.70;41.70;;;;;;5025034;28;20032;-80
2021/04/09 03:18:03;;;;;;;2.00;0.20;;;20.70;41.70;;;;;;5044655;28;20031;-78
2021/04/09 03:20:30;;;;;;;0.52;0.20;;;20.70;41.70;;;;;;5014859;28;20034;-79
2021/04/09 03:22:56;;;;;;;0.60;0.20;;;20.70;41.70;;;;;;5026112;28;20104;-79
2021/04/09 03:25:22;;;;;;;0.45;0.20;;;20.70;41.70;;;;;;5044042;28;20028;-80
2021/04/09 03:27:48;;;;;;;2.28;0.20;;;20.60;41.70;;;;;;5042748;28;20030;-79
2021/04/09 03:30:16;;;;;;;0.60;0.20;;;20.60;41.60;;;;;;5017707;28;20021;-79
2021/04/09 03:32:42;;;;;;;1.40;0.30;;;20.60;41.70;;;;;;5027955;28;20075;-79
2021/04/09 03:35:09;;;;;;;1.38;0.20;;;20.60;41.70;;;;;;5028981;28;20021;-80
2021/04/09 03:37:35;;;;;;;0.85;0.10;;;20.60;41.70;;;;;;5027463;28;20026;-80
2021/04/09 03:40:01;;;;;;;0.63;0.20;;;20.60;41.70;;;;;;5038836;28;20086;-80
2021/04/09 03:42:27;;;;;;;0.95;0.15;;;20.60;41.70;;;;;;5033153;28;20555;-78
2021/04/09 03:44:53;;;;;;;0.68;0.20;;;20.60;41.70;;;;;;5020713;28;20038;-78
2021/04/09 03:47:19;;;;;;;1.15;0.20;;;20.60;41.70;;;;;;5026419;28;20029;-78
2021/04/09 03:49:45;;;;;;;0.68;0.20;;;20.60;41.70;;;;;;5024881;28;20045;-79
2021/04/09 03:52:11;;;;;;;0.80;0.17;;;20.60;41.70;;;;;;5011080;28;20091;-79
2021/04/09 03:54:37;;;;;;;1.65;0.25;;;20.60;41.70;;;;;;5016811;28;20371;-81
2021/04/09 03:57:03;;;;;;;0.40;0.20;;;20.50;41.60;;;;;;5050602;28;20076;-80
2021/04/09 03:59:29;;;;;;;0.35;0.10;;;20.50;41.70;;;;;;5031382;28;20404;-79
2021/04/09 04:01:55;;;;;;;0.80;0.13;;;20.50;41.70;;;;;;5031539;28;20053;-79
2021/04/09 04:04:21;;;;;;;0.77;0.20;;;20.50;41.70;;;;;;5034193;28;20025;-79
2021/04/09 04:06:47;;;;;;;0.63;0.20;;;20.50;41.70;;;;;;5008693;28;20517;-79
2021/04/09 04:09:13;;;;;;;1.13;0.30;;;20.50;41.70;;;;;;5024108;28;20037;-80
2021/04/09 04:11:39;;;;;;;0.40;0.10;;;20.50;41.70;;;;;;5049345;28;20017;-79
2021/04/09 04:14:05;;;;;;;0.40;0.10;;;20.50;41.70;;;;;;5052482;28;20040;-81
2021/04/09 04:16:31;;;;;;;2.22;0.30;;;20.50;41.80;;;;;;5015458;28;20642;-79
2021/04/09 04:18:57;;;;;;;0.65;0.20;;;20.50;41.80;;;;;;5009528;28;20189;-79
2021/04/09 04:21:23;;;;;;;0.50;0.20;;;20.50;41.70;;;;;;5011338;28;20388;-78
2021/04/09 04:23:49;;;;;;;0.65;0.20;;;20.50;41.80;;;;;;5029925;28;20043;-78
2021/04/09 04:26:15;;;;;;;0.68;0.15;;;20.50;41.70;;;;;;5014198;28;20025;-78
2021/04/09 04:28:41;;;;;;;0.63;0.20;;;20.50;41.80;;;;;;5027817;28;20032;-78
2021/04/09 04:31:07;;;;;;;0.70;0.40;;;20.50;41.80;;;;;;5028357;28;20621;-78
2021/04/09 04:33:33;;;;;;;0.50;0.17;;;20.40;41.70;;;;;;5047743;28;20052;-78
2021/04/09 04:35:59;;;;;;;0.45;0.20;;;20.40;41.70;;;;;;5044917;28;20013;-78
2021/04/09 04:38:26;;;;;;;0.38;0.10;;;20.40;41.80;;;;;;5027101;28;20405;-77
2021/04/09 04:40:52;;;;;;;0.73;0.10;;;20.40;41.70;;;;;;5025751;28;20071;-78
2021/04/09 04:43:18;;;;;;;0.40;0.13;;;20.40;41.70;;;;;;5030730;28;20014;-78
2021/04/09 04:45:45;;;;;;;0.43;0.20;;;20.40;41.70;;;;;;5049881;28;20017;-78
2021/04/09 04:48:11;;;;;;;0.75;0.10;;;20.40;41.70;;;;;;5046809;28;20563;-78
2021/04/09 04:50:37;;;;;;;0.45;0.20;;;20.40;41.70;;;;;;5029936;28;20028;-77
2021/04/09 04:53:04;;;;;;;0.60;0.20;;;20.40;41.80;;;;;;5043951;28;20017;-78
2021/04/09 04:55:30;;;;;;;0.90;0.13;;;20.40;41.70;;;;;;5045055;28;20009;-79
2021/04/09 04:57:57;;;;;;;0.60;0.10;;;20.40;41.70;;;;;;5025119;28;20076;-79
2021/04/09 05:00:23;;;;;;;0.73;0.10;;;20.40;41.80;;;;;;5029195;28;20025;-78
2021/04/09 05:02:49;;;;;;;0.40;0.10;;;20.30;41.70;;;;;;5026503;28;20029;-79
2021/04/09 05:05:15;;;;;;;1.33;0.17;;;20.30;41.70;;;;;;5050404;28;20025;-79
2021/04/09 05:07:41;;;;;;;1.13;0.10;;;20.40;41.80;;;;;;5025801;28;20091;-79
2021/04/09 05:10:08;;;;;;;0.50;0.10;;;20.30;41.70;;;;;;5026840;28;20033;-79
2021/04/09 05:12:34;;;;;;;0.65;0.10;;;20.30;41.70;;;;;;5028860;28;20025;-79
2021/04/09 05:15:00;;;;;;;0.60;0.10;;;20.30;42.30;;;;;;5027547;28;20391;-79
2021/04/09 05:17:26;;;;;;;0.60;0.10;;;20.30;41.80;;;;;;5028354;28;20021;-79
2021/04/09 05:19:53;;;;;;;0.95;0.20;;;20.30;41.70;;;;;;5043938;28;20025;-78
2021/04/09 05:22:19;;;;;;;0.70;0.10;;;20.30;41.70;;;;;;5042570;28;20045;-79
2021/04/09 05:24:49;;;;;;;0.50;0.10;;;20.30;41.80;;;;;;5045813;28;20028;-78
2021/04/09 05:27:15;;;;;;;0.60;0.10;;;20.30;41.80;;;;;;5013595;28;20021;-78
2021/04/09 05:29:42;;;;;;;1.08;0.20;;;20.30;41.80;;;;;;5015522;28;20032;-79
2021/04/09 05:32:12;;;;;;;0.55;0.20;;;20.30;41.80;;;;;;5031642;28;20505;-79
2021/04/09 05:34:38;;;;;;;2.53;0.20;;;20.30;41.90;;;;;;5014079;28;20025;-80
2021/04/09 05:37:05;;;;;;;0.88;0.13;;;20.20;42.10;;;;;;5018134;28;20473;-80
2021/04/09 05:39:31;;;;;;;0.32;0.10;;;20.20;42.10;;;;;;5007413;28;20091;-80
2021/04/09 05:41:57;;;;;;;1.20;0.17;;;20.30;42.10;;;;;;5029107;28;20032;-79
2021/04/09 05:44:23;;;;;;;0.90;0.25;;;20.30;42.00;;;;;;5030441;28;20026;-79
2021/04/09 05:46:49;;;;;;;0.40;0.17;;;20.20;41.90;;;;;;5026984;28;20282;-79
2021/04/09 05:49:15;;;;;;;1.88;0.10;;;20.20;41.90;;;;;;5046433;28;20179;-82
2021/04/09 05:51:41;;;;;;;0.77;0.30;;;20.30;41.70;;;;;;5044406;28;20021;-79
2021/04/09 05:54:08;;;;;;;0.50;0.20;;;20.30;41.60;;;;;;5031195;28;20718;-79
2021/04/09 05:56:34;;;;;;;0.47;0.20;;;20.40;41.40;;;;;;5029820;28;20032;-80
2021/04/09 05:59:00;;;;;;;1.25;0.10;;;20.60;41.30;;;;;;5025687;28;20420;-79
2021/04/09 06:01:27;;;;;;;2.10;0.43;;;20.70;41.00;;;;;;5030009;28;20028;-79
2021/04/09 06:03:53;;;;;;;3.65;0.52;;;20.80;40.80;;;;;;5025922;28;20020;-80
2021/04/09 06:06:19;;;;;;;0.80;0.40;;;20.90;40.70;;;;;;5022670;28;20025;-79
2021/04/09 06:08:45;;;;;;;1.27;0.30;;;21.00;40.40;;;;;;5025703;28;20059;-79
2021/04/09 06:11:11;;;;;;;1.42;0.57;;;21.10;40.40;;;;;;5026044;28;20048;-79
2021/04/09 06:13:37;;;;;;;0.57;0.20;;;21.10;40.40;;;;;;5043248;28;20017;-79
2021/04/09 06:16:05;;;;;;;1.30;0.20;;;21.20;40.50;;;;;;5021317;28;20078;-78
2021/04/09 06:18:31;;;;;;;1.38;0.20;;;21.20;40.40;;;;;;5022385;28;20235;-78
2021/04/09 06:20:57;;;;;;;1.40;0.10;;;21.20;40.40;;;;;;5023051;28;20029;-78
2021/04/09 06:23:23;;;;;;;0.50;0.17;;;21.30;40.40;;;;;;5023440;28;20018;-78
2021/04/09 06:25:50;;;;;;;1.30;0.43;;;21.30;40.30;;;;;;5014467;28;20037;-78
2021/04/09 06:28:16;;;;;;;0.77;0.20;;;21.40;40.30;;;;;;5023866;28;20021;-78
2021/04/09 06:30:42;;;;;;;0.90;0.10;;;21.40;40.30;;;;;;5022421;28;20029;-79
2021/04/09 06:33:08;;;;;;;1.02;0.20;;;21.40;40.30;;;;;;5006704;28;20477;-79
2021/04/09 06:35:34;;;;;;;0.75;0.20;;;21.50;40.40;;;;;;5040147;28;20025;-79
2021/04/09 06:38:00;;;;;;;0.47;0.10;;;21.50;40.40;;;;;;5006931;28;20106;-78
2021/04/09 06:40:27;;;;;;;0.82;0.10;;;21.50;40.40;;;;;;5041771;28;20089;-78
2021/04/09 06:42:54;;;;;;;0.50;0.15;;;21.50;40.40;;;;;;5022607;28;20048;-79
2021/04/09 06:45:20;;;;;;;1.10;0.10;;;21.50;40.40;;;;;;5023867;28;20404;-79
2021/04/09 06:47:46;;;;;;;0.90;0.20;;;21.50;40.40;;;;;;5023694;28;20077;-78
2021/04/09 06:50:12;;;;;;;0.57;0.22;;;21.50;40.50;;;;;;5022619;28;20100;-79
2021/04/09 06:52:39;;;;;;;0.63;0.10;;;21.40;40.50;;;;;;5044199;28;20077;-79
2021/04/09 06:55:06;;;;;;;0.70;0.20;;;21.40;40.50;;;;;;5043450;28;20624;-79
2021/04/09 06:57:34;;;;;;;0.88;0.28;;;21.40;40.60;;;;;;5029105;28;20685;-80
2021/04/09 07:00:09;;;;;;;1.17;0.20;;;21.50;40.60;;;;;;5045893;28;20025;-79
2021/04/09 07:02:35;;;;;;;0.82;0.30;;;21.40;40.50;;;;;;5024097;28;20025;-79
2021/04/09 07:05:02;;;;;;;0.77;0.20;;;;;;;;;;5041780;28;20028;-78
2021/04/09 07:07:27;;;;;;;0.80;0.20;;;21.50;43.00;;;;;;5026189;28;20029;-79
2021/04/09 07:09:53;;;;;;;1.15;0.20;;;21.60;46.80;;;;;;5043968;28;20029;-79
2021/04/09 07:12:25;;;;;;;1.00;0.20;;;21.60;49.60;;;;;;5026290;28;20124;-78
2021/04/09 07:14:56;;;;;;;1.17;0.10;;;21.70;55.50;;;;;;5025950;28;20013;-80
2021/04/09 07:17:23;;;;;;;1.05;0.20;;;21.60;50.90;;;;;;5014002;28;20040;-79
2021/04/09 07:19:49;;;;;;;1.42;0.15;;;21.60;51.30;;;;;;5045479;28;20323;-79
2021/04/09 07:22:15;;;;;;;1.95;0.10;;;21.50;51.50;;;;;;5023756;28;20021;-79
2021/04/09 07:24:41;;;;;;;0.52;0.10;;;21.60;51.50;;;;;;5031870;28;20025;-81
2021/04/09 07:27:07;;;;;;;1.75;0.20;;;21.50;52.40;;;;;;5048548;28;20025;-80
2021/04/09 07:29:40;;;;;;;0.40;0.10;;;;;;;;;;5015195;28;20031;-80
2021/04/09 07:32:09;;;;;;;1.42;0.20;;;21.40;35.60;;;;;;5047821;28;20507;-79
2021/04/09 07:34:59;;;;;;;1.30;0.20;;;21.40;36.10;;;;;;5031300;28;20025;-79
2021/04/09 07:37:33;;;;;;;0.88;0.22;;;21.40;36.00;;;;;;5030607;28;20024;-78
2021/04/09 07:40:06;;;;;;;0.47;0.10;;;21.40;35.90;;;;;;5048937;28;20108;-78
2021/04/09 07:42:36;;;;;;;0.75;0.20;;;21.40;36.10;;;;;;5025989;28;20029;-78
2021/04/09 07:45:11;;;;;;;1.63;0.30;;;21.40;36.20;;;;;;5042089;28;20393;-78
2021/04/09 07:47:42;;;;;;;2.35;0.30;;;21.50;36.40;;;;;;5025159;28;20032;-76
2021/04/09 07:50:11;;;;;;;1.55;0.20;;;21.50;36.10;;;;;;5044125;28;20029;-76
2021/04/09 07:52:51;;;;;;;0.95;0.30;;;21.50;36.10;;;;;;5026377;28;20485;-76
2021/04/09 07:55:23;;;;;;;0.82;0.20;;;21.60;36.10;;;;;;5025209;28;20026;-80
2021/04/09 07:57:50;;;;;;;1.10;0.22;;;21.60;36.00;;;;;;5025596;28;20509;-77
2021/04/09 08:00:27;;;;;;;1.42;0.20;;;21.50;35.90;;;;;;5009448;28;20037;-78
2021/04/09 08:02:56;;;;;;;2.35;0.20;;;21.50;36.10;;;;;;5017318;28;20033;-78
2021/04/09 08:05:25;;;;;;;0.85;0.10;;;21.50;36.10;;;;;;5047047;28;20017;-78
2021/04/09 08:07:52;;;;;;;1.88;0.20;;;21.50;36.10;;;;;;5028816;28;20487;-78
2021/04/09 08:10:25;;;;;;;0.47;0.10;;;21.60;36.30;;;;;;5029504;28;20110;-80
2021/04/09 08:12:53;;;;;;;2.10;0.30;;;21.60;36.20;;;;;;5027908;28;20021;-79
2021/04/09 08:15:21;;;;;;;0.40;0.10;;;21.60;36.20;;;;;;5029052;28;20021;-79
2021/04/09 08:18:08;;;;;;;0.98;0.40;;;21.70;36.60;;;;;;5048203;28;20044;-79
2021/04/09 08:20:36;;;;;;;0.77;0.35;;;21.70;36.50;;;;;;5015120;28;20116;-79
2021/04/09 08:23:11;;;;;;;1.55;0.20;;;21.70;36.60;;;;;;5014364;28;20025;-78
2021/04/09 08:25:39;;;;;;;1.38;0.22;;;21.70;36.50;;;;;;5019141;28;20041;-78
2021/04/09 08:28:07;;;;;;;2.17;0.40;;;21.70;36.40;;;;;;5031009;28;20027;-78
2021/04/09 08:30:35;;;;;;;1.02;0.35;;;21.70;36.50;;;;;;5030418;28;20029;-81
2021/04/09 08:33:01;;;;;;;0.50;0.20;;;21.60;36.40;;;;;;5051608;28;20132;-77
2021/04/09 08:35:27;;;;;;;1.40;0.20;;;21.60;36.40;;;;;;5044507;28;20096;-79
2021/04/09 08:37:55;;;;;;;0.70;0.20;;;21.60;36.50;;;;;;5029064;28;20033;-77
2021/04/09 08:40:21;;;;;;;1.48;0.40;;;21.70;36.50;;;;;;5034225;28;20020;-80
2021/04/09 08:42:47;;;;;;;0.52;0.25;;;21.70;36.80;;;;;;5011640;28;20441;-80
2021/04/09 08:45:15;;;;;;;3.45;0.30;;;21.80;36.80;;;;;;5027602;28;20028;-78
2021/04/09 08:47:42;;;;;;;0.85;0.30;;;21.80;36.80;;;;;;5025185;28;20055;-80
2021/04/09 08:50:11;;;;;;;0.73;0.22;;;21.70;36.60;;;;;;5028734;28;20392;-77
2021/04/09 08:52:43;;;;;;;2.65;0.60;;;21.70;36.60;;;;;;5043747;28;20030;-77
2021/04/09 08:55:11;;;;;;;0.90;0.40;;;21.70;36.70;;;;;;5023730;28;20167;-76
2021/04/09 08:57:41;;;;;;;1.50;0.60;;;21.70;36.60;;;;;;5025074;28;20022;-78
2021/04/09 09:00:14;;;;;;;5.68;0.57;;;21.80;36.70;;;;;;5040622;28;20030;-77
2021/04/09 09:02:50;;;;;;;1.70;0.30;;;21.80;36.80;;;;;;5025096;28;20040;-76
2021/04/09 09:05:30;;;;;;;1.40;0.30;;;21.80;36.70;;;;;;5043287;28;20025;-77
2021/04/09 09:07:57;;;;;;;1.95;0.38;;;21.80;36.70;;;;;;5009277;28;20689;-77
2021/04/09 09:10:29;;;;;;;0.70;0.25;;;21.80;36.90;;;;;;5036632;28;20040;-80
2021/04/09 09:13:17;;;;;;;;;;;21.80;37.00;;;;;;5026098;28;20029;-79
2021/04/09 09:15:45;;;;;;;0.88;0.32;;;21.80;37.10;;;;;;5043703;28;20034;-80
2021/04/09 09:18:31;;;;;;;1.75;0.32;;;21.70;37.20;;;;;;5008775;28;20035;-77
2021/04/09 09:21:09;;;;;;;1.20;0.20;;;21.70;37.00;;;;;;5023449;28;20369;-77
2021/04/09 09:23:43;;;;;;;1.40;0.38;;;21.80;37.00;;;;;;5042187;28;20037;-78
2021/04/09 09:26:40;;;;;;;0.80;0.30;;;21.80;37.10;;;;;;5024155;28;20023;-77
2021/04/09 09:29:21;;;;;;;1.15;0.30;;;21.90;37.20;;;;;;5022657;28;20029;-80
2021/04/09 09:32:07;;;;;;;1.45;0.40;;;21.90;37.00;;;;;;5043327;28;20025;-77
2021/04/09 09:34:39;;;;;;;0.80;0.30;;;21.90;37.30;;;;;;5043099;28;20082;-79
2021/04/09 09:37:06;;;;;;;1.85;0.30;;;21.90;37.50;;;;;;5025082;28;20096;-80
2021/04/09 09:39:55;;;;;;;3.92;0.50;;;21.90;37.60;;;;;;5009827;28;20051;-76
2021/04/09 09:42:25;;;;;;;0.60;0.20;;;21.90;37.40;;;;;;5025246;28;20025;-78
2021/04/09 09:44:56;;;;;;;1.10;0.28;;;21.90;37.40;;;;;;5044279;28;20029;-78
2021/04/09 09:47:32;;;;;;;0.90;0.20;;;22.00;37.80;;;;;;5045964;28;20033;-80
2021/04/09 09:50:05;;;;;;;0.60;0.20;;;22.10;37.80;;;;;;5012146;28;20545;-79
2021/04/09 09:52:56;;;;;;;1.55;0.35;;;22.20;37.50;;;;;;5046762;28;20029;-80
2021/04/09 09:55:22;;;;;;;0.50;0.20;;;22.20;37.60;;;;;;5025268;28;20024;-77
2021/04/09 09:57:54;;;;;;;0.60;0.20;;;22.30;37.50;;;;;;5027750;28;20021;-76
2021/04/09 10:00:24;;;;;;;0.80;0.35;;;22.40;37.20;;;;;;5022347;28;20025;-77
2021/04/09 10:02:50;;;;;;;0.88;0.35;;;22.50;37.10;;;;;;5006952;28;20022;-78
2021/04/09 10:05:17;;;;;;;2.10;0.20;;;22.50;37.00;;;;;;5022407;28;20116;-78
2021/04/09 10:07:45;;;;;;;0.93;0.28;;;22.60;37.00;;;;;;5006871;28;20033;-78
2021/04/09 10:10:11;;;;;;;0.45;0.20;;;22.70;37.10;;;;;;5041285;28;20139;-77
2021/04/09 10:12:37;;;;;;;0.60;0.22;;;22.70;37.00;;;;;;5023833;28;20037;-79
2021/04/09 10:15:03;;;;;;;0.60;0.25;;;22.80;37.20;;;;;;5014886;28;20029;-76
2021/04/09 10:17:30;;;;;;;1.65;0.20;;;22.80;37.40;;;;;;5021118;28;20025;-78
2021/04/09 10:20:05;;;;;;;2.35;0.25;;;22.80;37.20;;;;;;5043644;28;20043;-77
2021/04/09 10:22:31;;;;;;;1.35;0.30;;;22.80;37.20;;;;;;5043183;28;20569;-78
2021/04/09 10:24:58;;;;;;;0.55;0.20;;;22.80;37.10;;;;;;5008433;28;20030;-80
2021/04/09 10:27:24;;;;;;;0.85;0.20;;;22.80;37.20;;;;;;5007287;28;20033;-78
2021/04/09 10:29:50;;;;;;;1.88;0.30;;;22.80;37.30;;;;;;5023245;28;20033;-77
2021/04/09 10:32:18;;;;;;;0.65;0.20;;;22.80;37.40;;;;;;5007686;28;20112;-77
2021/04/09 10:34:48;;;;;;;1.02;0.43;;;22.70;37.50;;;;;;5008224;28;20033;-80
2021/04/09 10:37:20;;;;;;;3.20;0.60;;;22.80;37.60;;;;;;5023081;28;20123;-77
2021/04/09 10:39:46;;;;;;;;;;;22.80;37.60;;;;;;5022932;28;20893;-78
2021/04/09 10:42:12;;;;;;;3.38;0.63;;;22.80;37.70;;;;;;5041655;28;19917;-79
2021/04/09 10:44:38;;;;;;;1.27;0.73;;;22.80;37.80;;;;;;5024647;28;20045;-77
2021/04/09 10:47:06;;;;;;;1.27;0.70;;;22.80;38.40;;;;;;5023543;28;20029;-78
2021/04/09 10:49:35;;;;;;;0.85;0.70;;;22.70;38.00;;;;;;5024950;28;20033;-79
2021/04/09 10:52:12;;;;;;;1.45;0.40;;;22.80;38.10;;;;;;5052098;28;20026;-79
2021/04/09 10:54:41;;;;;;;3.17;0.70;;;22.80;38.10;;;;;;5007360;28;20025;-78
2021/04/09 10:57:10;;;;;;;3.08;0.40;;;22.80;38.00;;;;;;5008857;28;20033;-80
2021/04/09 10:59:41;;;;;;;1.67;0.60;;;22.70;38.10;;;;;;5026073;28;20083;-78
2021/04/09 11:02:10;;;;;;;1.17;0.73;;;22.70;38.30;;;;;;5041794;28;20056;-79
2021/04/09 11:04:37;;;;;;;1.08;0.60;;;22.70;38.40;;;;;;5028791;28;20025;-77
2021/04/09 11:07:05;;;;;;;4.03;0.70;;;22.70;38.20;;;;;;5028179;28;20074;-78
2021/04/09 11:09:43;;;;;;;1.30;0.55;;;22.70;38.10;;;;;;5028297;28;20160;-77
2021/04/09 11:12:28;;;;;;;3.00;0.80;;;22.70;37.60;;;;;;5045123;28;20681;-78
2021/04/09 11:15:12;;;;;;;3.53;0.73;;;22.70;38.10;;;;;;5030391;28;20285;-77
2021/04/09 11:17:51;;;;;;;1.73;0.55;;;22.70;38.30;;;;;;5044378;28;20021;-78
2021/04/09 11:20:29;;;;;;;0.90;0.40;;;22.70;38.50;;;;;;5046074;28;20026;-79
2021/04/09 11:23:10;;;;;;;1.08;0.60;;;22.60;38.40;;;;;;5034013;28;20021;-75
2021/04/09 11:25:37;;;;;;;1.87;0.77;;;22.60;37.90;;;;;;5051007;28;20163;-77
2021/04/09 11:28:05;;;;;;;1.67;0.50;;;22.70;38.30;;;;;;5029386;28;20566;-77
2021/04/09 11:30:36;;;;;;;1.25;0.47;;;22.70;38.10;;;;;;5033015;28;20032;-78
2021/04/09 11:33:03;;;;;;;1.42;0.50;;;22.70;38.10;;;;;;5027446;28;20029;-78
2021/04/09 11:35:35;;;;;;;4.63;0.60;;;22.70;38.60;;;;;;5028911;28;20085;-78
2021/04/09 11:38:06;;;;;;;1.23;0.50;;;22.60;38.90;;;;;;5032167;28;20013;-78
2021/04/09 11:40:37;;;;;;;1.65;0.57;;;22.60;37.80;;;;;;5030423;28;20068;-78
2021/04/09 11:43:06;;;;;;;1.38;0.55;;;22.60;38.00;;;;;;5015538;28;20547;-78
2021/04/09 11:45:43;;;;;;;2.67;0.40;;;22.60;38.00;;;;;;5022768;28;20041;-78
2021/04/09 11:48:29;;;;;;;6.28;0.57;;;22.60;38.00;;;;;;5049278;28;20036;-76
2021/04/09 11:51:15;;;;;;;1.30;0.50;;;22.60;37.90;;;;;;5033193;28;20112;-78
2021/04/09 11:53:41;;;;;;;1.38;0.80;;;22.60;37.90;;;;;;5045102;28;20070;-78
2021/04/09 11:56:08;;;;;;;1.30;0.40;;;22.70;38.20;;;;;;5012379;28;20268;-78
2021/04/09 11:58:41;;;;;;;2.13;0.55;;;22.70;38.10;;;;;;5009805;28;20542;-79
2021/04/09 12:01:07;;;;;;;1.08;0.40;;;22.70;38.00;;;;;;5028137;28;20486;-81
2021/04/09 12:03:41;;;;;;;1.90;0.55;;;22.60;38.00;;;;;;5047636;28;20093;-79
2021/04/09 12:06:16;;;;;;;4.28;0.60;;;22.60;37.90;;;;;;5028357;28;20061;-77
2021/04/09 12:08:43;;;;;;;1.23;0.40;;;22.60;38.00;;;;;;5027983;28;20035;-78
2021/04/09 12:11:10;;;;;;;3.42;0.57;;;22.60;37.80;;;;;;5029855;28;20028;-79
2021/04/09 12:13:38;;;;;;;0.90;0.30;;;22.60;37.90;;;;;;5027739;28;20480;-78
2021/04/09 12:16:05;;;;;;;1.58;0.47;;;22.60;37.90;;;;;;5028069;28;20053;-78
2021/04/09 12:18:32;;;;;;;3.47;0.30;;;22.50;37.80;;;;;;5044791;28;20455;-78
2021/04/09 12:20:58;;;;;;;3.55;0.22;;;22.50;37.80;;;;;;5033543;28;20031;-79
2021/04/09 12:23:25;;;;;;;1.40;0.55;;;22.50;37.80;;;;;;5047516;28;20107;-77
2021/04/09 12:25:57;;;;;;;0.75;0.38;;;22.50;37.80;;;;;;5030298;28;20033;-77
2021/04/09 12:28:23;;;;;;;1.20;0.43;;;22.50;37.90;;;;;;5008646;28;20033;-77
2021/04/09 12:30:51;;;;;;;2.58;0.50;;;22.50;38.00;;;;;;5023163;28;20315;-76
2021/04/09 12:33:18;;;;;;;1.95;0.40;;;22.50;37.80;;;;;;5007649;28;20033;-77
2021/04/09 12:35:45;;;;;;;2.22;0.50;;;22.60;37.80;;;;;;5029298;28;20029;-77
2021/04/09 12:38:11;;;;;;;1.13;0.50;;;22.60;37.80;;;;;;5042309;28;20028;-77
2021/04/09 12:40:37;;;;;;;0.68;0.30;;;22.50;37.70;;;;;;5043270;28;20025;-75
2021/04/09 12:43:03;;;;;;;1.52;0.35;;;22.60;37.60;;;;;;5042076;28;20040;-77
2021/04/09 12:45:29;;;;;;;0.98;0.38;;;22.60;37.70;;;;;;5028432;28;20044;-80
2021/04/09 12:47:55;;;;;;;1.55;0.32;;;22.60;37.60;;;;;;5043661;28;20428;-79
2021/04/09 12:50:21;;;;;;;0.93;0.40;;;22.50;37.70;;;;;;5030155;28;20029;-78
2021/04/09 12:52:47;;;;;;;2.67;0.40;;;22.50;37.70;;;;;;5032541;28;20024;-81
2021/04/09 12:55:13;;;;;;;3.15;0.38;;;22.40;37.70;;;;;;5026656;28;20048;-77
2021/04/09 12:57:39;;;;;;;2.03;0.45;;;22.40;37.70;;;;;;5025728;28;20072;-76